Time;durP1;ratioP1;P1;durP2;ratioP2;P2;SDS_P1;SDS_P2;PMS_P1;PMS_P2;Temp;Humidity;BMP_temperature;BMP_pressure;BME280_temperature;BME280_humidity;BME280_pressure;Samples;Min_cycle;Max_cycle;Signal;HPM_P1;HPM_P2
2022/09/05 00:02:08;;;;;;;;;;;;;;;22.48;100.00;98429.00;5046812;28;19928;-83
2022/09/05 00:04:40;;;;;;;;;;;;;;;22.43;100.00;98427.28;5029977;28;19935;-82
2022/09/05 00:07:12;;;;;;;;;;;;;;;22.50;100.00;98424.81;5035876;28;20464;-84
2022/09/05 00:09:53;;;;;;;;;;;;;;;22.45;100.00;98419.56;5012006;28;19928;-83
2022/09/05 00:12:20;;;;;;;;;;;;;;;22.34;100.00;98417.53;5007445;28;20343;-83
2022/09/05 00:14:55;;;;;;;;;;;;;;;22.33;100.00;98419.47;5020517;28;19931;-83
2022/09/05 00:17:27;;;;;;;;;;;;;;;22.38;100.00;98418.47;5019387;28;19929;-82
2022/09/05 00:19:59;;;;;;;;;;;;;;;22.44;100.00;98417.97;5008445;28;19935;-84
2022/09/05 00:22:36;;;;;;;;;;;;;;;22.35;100.00;98413.69;5023773;28;19925;-83
2022/09/05 00:25:14;;;;;;;;;;;;;;;22.30;100.00;98408.44;5025461;28;19925;-82
2022/09/05 00:27:46;;;;;;;;;;;;;;;22.28;100.00;98413.41;5026730;28;20567;-83
2022/09/05 00:30:15;;;;;;;;;;;;;;;22.32;100.00;98412.41;5023278;28;19932;-82
2022/09/05 00:32:49;;;;;;;;;;;;;;;22.37;100.00;98417.69;5026195;28;20816;-83
2022/09/05 00:35:24;;;;;;;;;;;;;;;22.38;100.00;98424.72;5014184;28;20334;-82
2022/09/05 00:37:51;;;;;;;;;;;;;;;22.40;100.00;98422.47;5003604;28;20646;-83
2022/09/05 00:40:25;;;;;;;;;;;;;;;22.42;100.00;98422.13;5006272;28;20023;-83
2022/09/05 00:42:53;;;;;;;;;;;;;;;22.36;100.00;98420.72;5022661;28;19983;-83
2022/09/05 00:45:24;;;;;;;;;;;;;;;22.14;100.00;98420.97;5023390;28;19929;-83
2022/09/05 00:47:56;;;;;;;;;;;;;;;22.16;100.00;98419.50;5022218;28;19929;-82
2022/09/05 00:50:27;;;;;;;;;;;;;;;22.22;100.00;98415.50;5030497;28;19936;-81
2022/09/05 00:52:56;;;;;;;;;;;;;;;22.21;100.00;98413.91;5021612;28;20035;-82
2022/09/05 00:55:28;;;;;;;;;;;;;;;22.25;100.00;98414.84;5031497;28;19940;-83
2022/09/05 00:57:58;;;;;;;;;;;;;;;22.10;100.00;98409.94;5006162;28;20036;-84
2022/09/05 01:00:33;;;;;;;;;;;;;;;21.80;100.00;98414.50;5036898;28;20034;-84
2022/09/05 01:03:21;;;;;;;;;;;;;;;21.65;100.00;98420.44;5044695;28;19940;-82
2022/09/05 01:05:56;;;;;;;;;;;;;;;21.73;100.00;98416.09;5037544;28;20339;-84
2022/09/05 01:08:30;;;;;;;;;;;;;;;21.77;100.00;98419.78;5030332;28;19936;-83
2022/09/05 01:11:02;;;;;;;;;;;;;;;21.83;100.00;98413.84;5040612;28;19929;-83
2022/09/05 01:13:34;;;;;;;;;;;;;;;21.65;100.00;98416.91;5038067;28;20384;-84
2022/09/05 01:16:06;;;;;;;;;;;;;;;21.59;100.00;98418.22;5035383;28;19928;-83
2022/09/05 01:18:42;;;;;;;;;;;;;;;21.27;100.00;98416.78;5040895;28;20024;-83
2022/09/05 01:21:22;;;;;;;;;;;;;;;21.29;100.00;98415.34;5034582;28;19972;-82
2022/09/05 01:23:54;;;;;;;;;;;;;;;21.37;100.00;98417.28;5011363;28;19971;-83
2022/09/05 01:26:37;;;;;;;;;;;;;;;21.49;100.00;98416.63;5020004;28;19928;-83
2022/09/05 01:29:09;;;;;;;;;;;;;;;21.34;100.00;98417.91;5016966;28;19932;-82
2022/09/05 01:31:39;;;;;;;;;;;;;;;21.44;100.00;98423.03;5045904;28;19928;-83
2022/09/05 01:34:12;;;;;;;;;;;;;;;21.53;100.00;98428.47;5045244;28;19964;-83
2022/09/05 01:36:49;;;;;;;;;;;;;;;21.62;100.00;98425.72;5040173;28;19935;-83
2022/09/05 01:39:18;;;;;;;;;;;;;;;21.65;100.00;98427.78;5042238;28;20011;-83
2022/09/05 01:41:50;;;;;;;;;;;;;;;21.63;100.00;98428.13;5026102;28;19925;-84
2022/09/05 01:44:27;;;;;;;;;;;;;;;21.63;100.00;98440.91;5040382;28;20052;-84
2022/09/05 01:46:58;;;;;;;;;;;;;;;21.54;100.00;98439.00;5044029;28;19925;-82
2022/09/05 01:49:34;;;;;;;;;;;;;;;21.53;100.00;98442.84;5039907;28;19929;-82
2022/09/05 01:52:09;;;;;;;;;;;;;;;21.47;100.00;98449.56;5020355;28;20523;-83
2022/09/05 01:54:41;;;;;;;;;;;;;;;21.52;100.00;98452.09;5044181;28;20016;-83
2022/09/05 01:57:10;;;;;;;;;;;;;;;21.61;100.00;98454.00;5042527;28;20379;-83
2022/09/05 01:59:42;;;;;;;;;;;;;;;21.28;100.00;98459.94;5044871;28;20404;-82
2022/09/05 02:02:23;;;;;;;;;;;;;;;21.36;100.00;98453.72;5025319;28;19925;-82
2022/09/05 02:04:57;;;;;;;;;;;;;;;21.04;100.00;98453.34;5045251;28;19929;-83
2022/09/05 02:07:29;;;;;;;;;;;;;;;20.51;100.00;98456.25;5045735;28;20016;-83
2022/09/05 02:10:11;;;;;;;;;;;;;;;20.39;100.00;98451.44;5041845;28;19967;-83
2022/09/05 02:12:43;;;;;;;;;;;;;;;19.91;100.00;98435.03;5020854;28;20372;-83
2022/09/05 02:15:15;;;;;;;;;;;;;;;20.09;100.00;98447.56;5042150;28;19925;-82
2022/09/05 02:17:46;;;;;;;;;;;;;;;19.82;100.00;98448.56;5045123;28;19964;-83
2022/09/05 02:20:15;;;;;;;;;;;;;;;20.19;100.00;98435.66;5042725;28;20372;-82
2022/09/05 02:22:43;;;;;;;;;;;;;;;20.62;100.00;98441.28;5043124;28;19937;-82
2022/09/05 02:25:14;;;;;;;;;;;;;;;20.85;100.00;98437.34;5044439;28;19928;-83
2022/09/05 02:27:43;;;;;;;;;;;;;;;20.86;100.00;98444.34;5040051;28;20004;-83
2022/09/05 02:30:11;;;;;;;;;;;;;;;20.96;100.00;98444.88;5025150;28;19943;-84
2022/09/05 02:32:48;;;;;;;;;;;;;;;20.93;100.00;98450.13;5039051;28;19924;-83
2022/09/05 02:35:18;;;;;;;;;;;;;;;21.25;100.00;98444.28;5039004;28;19928;-83
2022/09/05 02:37:47;;;;;;;;;;;;;;;21.35;100.00;98451.31;5037598;28;19924;-82
2022/09/05 02:40:18;;;;;;;;;;;;;;;21.45;100.00;98453.69;5030162;28;19937;-83
2022/09/05 02:42:48;;;;;;;;;;;;;;;21.22;100.00;98450.38;5014530;28;19924;-82
2022/09/05 02:45:21;;;;;;;;;;;;;;;21.23;100.00;98451.94;5033945;28;19929;-83
2022/09/05 02:47:53;;;;;;;;;;;;;;;21.27;100.00;98452.91;5004513;28;19928;-83
2022/09/05 02:50:23;;;;;;;;;;;;;;;20.39;100.00;98456.84;5032441;28;19925;-83
2022/09/05 02:52:50;;;;;;;;;;;;;;;20.35;100.00;98453.97;5027202;28;20064;-83
2022/09/05 02:55:23;;;;;;;;;;;;;;;20.51;100.00;98456.25;5032068;28;19928;-83
2022/09/05 02:57:53;;;;;;;;;;;;;;;20.60;100.00;98451.66;5034445;28;20439;-83
2022/09/05 03:00:21;;;;;;;;;;;;;;;20.64;100.00;98458.06;5032983;28;20012;-82
2022/09/05 03:02:57;;;;;;;;;;;;;;;20.50;100.00;98452.72;5018479;28;20032;-83
2022/09/05 03:05:26;;;;;;;;;;;;;;;20.10;100.00;98448.38;5034573;28;20003;-82
2022/09/05 03:08:08;;;;;;;;;;;;;;;19.74;100.00;98443.09;5016600;28;20331;-83
2022/09/05 03:10:49;;;;;;;;;;;;;;;19.57;100.00;98453.78;5031174;28;19925;-82
2022/09/05 03:13:34;;;;;;;;;;;;;;;19.84;100.00;98445.53;5014955;28;20360;-82
2022/09/05 03:16:16;;;;;;;;;;;;;;;20.19;100.00;98452.75;5025555;28;20588;-83
2022/09/05 03:19:02;;;;;;;;;;;;;;;20.41;100.00;98455.44;5030775;28;19955;-81
2022/09/05 03:21:53;;;;;;;;;;;;;;;20.44;100.00;98456.69;5032802;28;19932;-83
2022/09/05 03:24:37;;;;;;;;;;;;;;;20.78;100.00;98451.38;5027640;28;19929;-82
2022/09/05 03:27:21;;;;;;;;;;;;;;;21.04;100.00;98453.34;5030543;28;20452;-84
2022/09/05 03:30:10;;;;;;;;;;;;;;;21.13;100.00;98448.75;4999563;28;20023;-82
2022/09/05 03:32:56;;;;;;;;;;;;;;;20.92;100.00;98445.84;5032922;28;20055;-83
2022/09/05 03:35:38;;;;;;;;;;;;;;;20.56;100.00;98445.25;5029105;28;19976;-82
2022/09/05 03:38:22;;;;;;;;;;;;;;;20.40;100.00;98448.38;5030060;28;19935;-82
2022/09/05 03:40:55;;;;;;;;;;;;;;;20.51;100.00;98442.69;5029439;28;20324;-82
2022/09/05 03:43:48;;;;;;;;;;;;;;;20.54;100.00;98448.28;5017977;28;20497;-84
2022/09/05 03:46:21;;;;;;;;;;;;;;;20.78;100.00;98459.53;5030354;28;20040;-83
2022/09/05 03:49:04;;;;;;;;;;;;;;;20.95;100.00;98458.78;5028827;28;20414;-83
2022/09/05 03:51:33;;;;;;;;;;;;;;;21.03;100.00;98457.97;5015402;28;19964;-83
2022/09/05 03:54:18;;;;;;;;;;;;;;;21.08;100.00;98452.38;5027394;28;19925;-83
2022/09/05 03:56:53;;;;;;;;;;;;;;;20.86;100.00;98452.50;5031631;28;19936;-82
2022/09/05 03:59:45;;;;;;;;;;;;;;;20.56;100.00;98458.81;5029350;28;20451;-82
2022/09/05 04:02:14;;;;;;;;;;;;;;;20.62;100.00;98458.34;5031042;28;19944;-81
2022/09/05 04:04:43;;;;;;;;;;;;;;;20.67;100.00;98462.84;5034465;28;20438;-82
2022/09/05 04:07:15;;;;;;;;;;;;;;;20.67;100.00;98455.53;5033081;28;19979;-82
2022/09/05 04:09:44;;;;;;;;;;;;;;;20.56;100.00;98456.09;5033220;28;19928;-82
2022/09/05 04:12:15;;;;;;;;;;;;;;;20.63;100.00;98462.69;5031277;28;19924;-81
2022/09/05 04:14:46;;;;;;;;;;;;;;;20.67;100.00;98458.22;5037252;28;19925;-82
2022/09/05 04:17:21;;;;;;;;;;;;;;;20.57;100.00;98460.41;5033310;28;19925;-82
2022/09/05 04:19:50;;;;;;;;;;;;;;;20.58;100.00;98453.88;5035274;28;19925;-82
2022/09/05 04:22:19;;;;;;;;;;;;;;;20.26;100.00;98463.19;5037119;28;19925;-82
2022/09/05 04:24:50;;;;;;;;;;;;;;;20.40;100.00;98470.09;5035374;28;19935;-82
2022/09/05 04:27:28;;;;;;;;;;;;;;;20.49;100.00;98461.22;5036216;28;19924;-83
2022/09/05 04:29:58;;;;;;;;;;;;;;;20.39;100.00;98452.19;5033594;28;20021;-83
2022/09/05 04:32:30;;;;;;;;;;;;;;;20.12;100.00;98457.00;5018209;28;19975;-82
2022/09/05 04:35:06;;;;;;;;;;;;;;;19.99;100.00;98463.34;5036634;28;19924;-83
2022/09/05 04:37:37;;;;;;;;;;;;;;;19.79;100.00;98460.00;5020455;28;19928;-85
2022/09/05 04:40:22;;;;;;;;;;;;;;;19.90;100.00;98469.47;5039498;28;19979;-82
2022/09/05 04:42:51;;;;;;;;;;;;;;;20.22;100.00;98464.88;5042744;28;20425;-82
2022/09/05 04:45:18;;;;;;;;;;;;;;;20.21;100.00;98460.59;5042785;28;19947;-82
2022/09/05 04:47:49;;;;;;;;;;;;;;;19.98;100.00;98467.94;5022013;28;20128;-82
2022/09/05 04:50:17;;;;;;;;;;;;;;;19.60;100.00;98469.44;5043981;28;19936;-82
2022/09/05 04:52:54;;;;;;;;;;;;;;;19.77;100.00;98475.00;5039624;28;19925;-83
2022/09/05 04:55:23;;;;;;;;;;;;;;;19.63;100.00;98466.09;5042216;28;19986;-83
2022/09/05 04:57:54;;;;;;;;;;;;;;;19.86;100.00;98468.53;5021276;28;19960;-82
2022/09/05 05:00:24;;;;;;;;;;;;;;;20.04;100.00;98474.84;5041498;28;20501;-83
2022/09/05 05:02:52;;;;;;;;;;;;;;;20.25;100.00;98477.81;5039580;28;19925;-82
2022/09/05 05:05:21;;;;;;;;;;;;;;;20.35;100.00;98469.44;5020477;28;20012;-81
2022/09/05 05:07:51;;;;;;;;;;;;;;;20.23;100.00;98469.19;5043941;28;20008;-82
2022/09/05 05:10:20;;;;;;;;;;;;;;;20.07;100.00;98465.28;5022911;28;20607;-81
2022/09/05 05:12:58;;;;;;;;;;;;;;;20.14;100.00;98465.63;5041411;28;19925;-82
2022/09/05 05:15:27;;;;;;;;;;;;;;;20.17;100.00;98468.53;5034956;28;20344;-82
2022/09/05 05:17:57;;;;;;;;;;;;;;;20.24;100.00;98463.44;5042290;28;19931;-83
2022/09/05 05:20:26;;;;;;;;;;;;;;;20.25;100.00;98475.91;5041447;28;19936;-81
2022/09/05 05:22:56;;;;;;;;;;;;;;;20.07;100.00;98466.06;5044186;28;19932;-82
2022/09/05 05:25:23;;;;;;;;;;;;;;;19.97;100.00;98471.75;5038941;28;19925;-82
2022/09/05 05:28:02;;;;;;;;;;;;;;;20.20;100.00;98470.63;5027993;28;20450;-81
2022/09/05 05:30:31;;;;;;;;;;;;;;;20.15;100.00;98468.03;5041318;28;19925;-82
2022/09/05 05:32:59;;;;;;;;;;;;;;;20.30;100.00;98481.22;5043093;28;19935;-80
2022/09/05 05:35:27;;;;;;;;;;;;;;;20.37;100.00;98488.91;5040350;28;20023;-85
2022/09/05 05:37:55;;;;;;;;;;;;;;;20.46;100.00;98476.16;5028446;28;20302;-83
2022/09/05 05:40:25;;;;;;;;;;;;;;;20.52;100.00;98483.06;5040138;28;20020;-82
2022/09/05 05:42:51;;;;;;;;;;;;;;;20.58;100.00;98489.16;5042777;28;20470;-82
2022/09/05 05:45:19;;;;;;;;;;;;;;;20.63;100.00;98497.16;5045080;28;19987;-82
2022/09/05 05:47:49;;;;;;;;;;;;;;;20.67;100.00;98496.22;5030947;28;20355;-83
2022/09/05 05:50:21;;;;;;;;;;;;;;;20.72;100.00;98497.97;5044501;28;20022;-81
2022/09/05 05:53:09;;;;;;;;;;;;;;;20.57;100.00;98492.97;5023191;28;19925;-82
2022/09/05 05:55:47;;;;;;;;;;;;;;;20.89;100.00;98500.75;5016999;28;19994;-82
2022/09/05 05:58:38;;;;;;;;;;;;;;;21.13;100.00;98494.94;5040275;28;20331;-82
2022/09/05 06:01:26;;;;;;;;;;;;;;;21.36;100.00;98505.34;5042272;28;19931;-82
2022/09/05 06:04:04;;;;;;;;;;;;;;;21.58;100.00;98503.56;5045000;28;20001;-82
2022/09/05 06:06:48;;;;;;;;;;;;;;;21.73;100.00;98501.19;5043318;28;20332;-83
2022/09/05 06:09:45;;;;;;;;;;;;;;;21.72;100.00;98493.34;5039711;28;19935;-82
2022/09/05 06:12:35;;;;;;;;;;;;;;;21.80;100.00;98492.53;5036984;28;20594;-83
2022/09/05 06:15:24;;;;;;;;;;;;;;;21.94;100.00;98493.97;5045240;28;19935;-82
2022/09/05 06:18:08;;;;;;;;;;;;;;;22.20;100.00;98488.50;5041796;28;19935;-82
2022/09/05 06:20:46;;;;;;;;;;;;;;;22.23;100.00;98487.03;5031548;28;19928;-82
2022/09/05 06:23:27;;;;;;;;;;;;;;;22.07;100.00;98492.19;5025459;28;19931;-82
2022/09/05 06:26:12;;;;;;;;;;;;;;;22.31;100.00;98495.16;5044908;28;19928;-82
2022/09/05 06:28:48;;;;;;;;;;;;;;;22.51;100.00;98488.22;5024613;28;19933;-83
2022/09/05 06:31:20;;;;;;;;;;;;;;;22.21;100.00;98497.44;5044975;28;19929;-81
2022/09/05 06:34:00;;;;;;;;;;;;;;;22.48;100.00;98491.59;5023415;28;19939;-81
2022/09/05 06:36:42;;;;;;;;;;;;;;;22.66;100.00;98495.88;5026049;28;20035;-82
2022/09/05 06:39:12;;;;;;;;;;;;;;;22.94;100.00;98498.94;5044395;28;19933;-81
2022/09/05 06:41:52;;;;;;;;;;;;;;;23.15;100.00;98502.47;5038420;28;19931;-81
2022/09/05 06:44:29;;;;;;;;;;;;;;;23.35;100.00;98503.63;5044834;28;19928;-83
2022/09/05 06:46:57;;;;;;;;;;;;;;;23.47;100.00;98501.00;5041537;28;19936;-82
2022/09/05 06:49:26;;;;;;;;;;;;;;;23.36;100.00;98500.59;5042717;28;19933;-83
2022/09/05 06:52:10;;;;;;;;;;;;;;;23.43;100.00;98509.03;5042453;28;19936;-82
2022/09/05 06:54:46;;;;;;;;;;;;;;;23.40;100.00;98508.91;5040354;28;19933;-85
2022/09/05 06:57:25;;;;;;;;;;;;;;;23.46;100.00;98507.59;5039860;28;19931;-82
2022/09/05 07:00:11;;;;;;;;;;;;;;;23.57;100.00;98512.31;5035580;28;20023;-82
2022/09/05 07:02:41;;;;;;;;;;;;;;;23.14;100.00;98517.25;5041347;28;19943;-82
2022/09/05 07:05:14;;;;;;;;;;;;;;;23.24;100.00;98519.56;5038352;28;19939;-82
2022/09/05 07:07:46;;;;;;;;;;;;;;;23.17;100.00;98516.59;5042964;28;20293;-83
2022/09/05 07:10:17;;;;;;;;;;;;;;;23.02;100.00;98509.78;5036299;28;19931;-83
2022/09/05 07:12:46;;;;;;;;;;;;;;;22.95;100.00;98516.88;5042604;28;19971;-83
2022/09/05 07:15:14;;;;;;;;;;;;;;;22.57;100.00;98509.50;5044773;28;20514;-83
2022/09/05 07:17:47;;;;;;;;;;;;;;;22.26;100.00;98514.41;5040456;28;19961;-82
2022/09/05 07:20:19;;;;;;;;;;;;;;;21.88;100.00;98519.75;5043971;28;19928;-81
2022/09/05 07:22:51;;;;;;;;;;;;;;;21.70;100.00;98525.47;5025099;28;19925;-82
2022/09/05 07:25:21;;;;;;;;;;;;;;;21.50;100.00;98519.59;5044770;28;19955;-81
2022/09/05 07:27:51;;;;;;;;;;;;;;;21.70;100.00;98530.91;5042887;28;19929;-82
2022/09/05 07:30:18;;;;;;;;;;;;;;;21.79;100.00;98521.63;5042531;28;20015;-82
2022/09/05 07:32:45;;;;;;;;;;;;;;;21.91;100.00;98526.47;5045157;28;19925;-83
2022/09/05 07:35:16;;;;;;;;;;;;;;;22.07;100.00;98524.84;5024306;28;19929;-82
2022/09/05 07:37:43;;;;;;;;;;;;;;;22.24;100.00;98524.00;5044819;28;19929;-82
2022/09/05 07:40:13;;;;;;;;;;;;;;;21.91;100.00;98529.19;5039711;28;20031;-82
2022/09/05 07:42:43;;;;;;;;;;;;;;;21.71;100.00;98529.81;5034387;28;19929;-83
2022/09/05 07:45:12;;;;;;;;;;;;;;;21.52;100.00;98530.94;5044143;28;20407;-81
2022/09/05 07:47:41;;;;;;;;;;;;;;;21.48;100.00;98529.97;5022864;28;19929;-82
2022/09/05 07:50:09;;;;;;;;;;;;;;;21.41;100.00;98537.00;5046422;28;20431;-82
2022/09/05 07:52:38;;;;;;;;;;;;;;;21.40;100.00;98538.09;5043217;28;19929;-82
2022/09/05 07:55:09;;;;;;;;;;;;;;;21.42;100.00;98530.44;5046707;28;19935;-82
2022/09/05 07:57:40;;;;;;;;;;;;;;;21.47;100.00;98531.09;5042355;28;19928;-83
2022/09/05 08:00:11;;;;;;;;;;;;;;;21.49;100.00;98531.56;5044604;28;19935;-82
2022/09/05 08:02:42;;;;;;;;;;;;;;;21.34;100.00;98534.75;5047071;28;20009;-81
2022/09/05 08:05:09;;;;;;;;;;;;;;;21.51;100.00;98525.78;5047599;28;20480;-82
2022/09/05 08:07:37;;;;;;;;;;;;;;;21.59;100.00;98533.16;5047816;28;20027;-82
2022/09/05 08:10:08;;;;;;;;;;;;;;;21.56;100.00;98533.81;5045733;28;19924;-82
2022/09/05 08:12:37;;;;;;;;;;;;;;;21.62;100.00;98531.72;5027411;28;20491;-82
2022/09/05 08:15:06;;;;;;;;;;;;;;;21.66;100.00;98525.34;5047632;28;20303;-81
2022/09/05 08:17:40;;;;;;;;;;;;;;;21.66;100.00;98532.69;5047509;28;19990;-82
2022/09/05 08:20:14;;;;;;;;;;;;;;;21.66;100.00;98527.25;5046959;28;19939;-83
2022/09/05 08:22:45;;;;;;;;;;;;;;;21.80;100.00;98528.69;5028595;28;19931;-82
2022/09/05 08:25:15;;;;;;;;;;;;;;;21.76;100.00;98516.03;5045083;28;20016;-82
2022/09/05 08:27:48;;;;;;;;;;;;;;;21.74;100.00;98526.44;5047385;28;20407;-83
2022/09/05 08:30:16;;;;;;;;;;;;;;;21.94;100.00;98528.56;5047435;28;19932;-83
2022/09/05 08:32:48;;;;;;;;;;;;;;;22.08;100.00;98521.00;5041644;28;20019;-83
2022/09/05 08:35:17;;;;;;;;;;;;;;;22.09;100.00;98519.88;5044414;28;19928;-83
2022/09/05 08:37:44;;;;;;;;;;;;;;;22.09;100.00;98519.09;5047555;28;19925;-83
2022/09/05 08:40:17;;;;;;;;;;;;;;;22.17;100.00;98521.78;5042146;28;19975;-83
2022/09/05 08:42:48;;;;;;;;;;;;;;;22.13;100.00;98520.81;5037547;28;19928;-82
2022/09/05 08:45:18;;;;;;;;;;;;;;;22.27;100.00;98521.44;5047009;28;20019;-83
2022/09/05 08:47:53;;;;;;;;;;;;;;;22.43;100.00;98506.19;5039170;28;19928;-82
2022/09/05 08:50:23;;;;;;;;;;;;;;;22.56;100.00;98505.16;5045531;28;19933;-83
2022/09/05 08:52:55;;;;;;;;;;;;;;;22.52;100.00;98500.72;5047028;28;19939;-83
2022/09/05 08:55:27;;;;;;;;;;;;;;;22.50;100.00;98503.75;5027678;28;19929;-82
2022/09/05 08:58:11;;;;;;;;;;;;;;;22.63;100.00;98491.03;5041166;28;19929;-84
2022/09/05 09:00:42;;;;;;;;;;;;;;;22.76;100.00;98497.44;5041817;28;19931;-83
2022/09/05 09:03:15;;;;;;;;;;;;;;;22.84;100.00;98493.88;5045693;28;19935;-83
2022/09/05 09:06:15;;;;;;;;;;;;;;;22.71;100.00;98498.44;5046724;28;19929;-83
2022/09/05 09:08:55;;;;;;;;;;;;;;;22.91;100.00;98499.59;5044207;28;19929;-82
2022/09/05 09:11:28;;;;;;;;;;;;;;;22.89;100.00;98496.41;5042181;28;19999;-83
2022/09/05 09:13:55;;;;;;;;;;;;;;;22.95;100.00;98495.09;5028374;28;19925;-82
2022/09/05 09:16:29;;;;;;;;;;;;;;;22.78;100.00;98498.69;5042959;28;20020;-83
2022/09/05 09:19:06;;;;;;;;;;;;;;;22.87;100.00;98485.81;5027411;28;19932;-83
2022/09/05 09:21:36;;;;;;;;;;;;;;;22.88;100.00;98489.34;5044342;28;19940;-83
2022/09/05 09:24:09;;;;;;;;;;;;;;;23.08;100.00;98480.44;5040968;28;20016;-84
2022/09/05 09:26:40;;;;;;;;;;;;;;;23.15;100.00;98480.69;5026360;28;19931;-85
2022/09/05 09:29:08;;;;;;;;;;;;;;;23.22;100.00;98486.41;5043886;28;19944;-83
2022/09/05 09:31:36;;;;;;;;;;;;;;;23.26;100.00;98487.34;5046578;28;19935;-83
2022/09/05 09:34:13;;;;;;;;;;;;;;;23.27;100.00;98486.22;5043352;28;20445;-83
2022/09/05 09:36:55;;;;;;;;;;;;;;;23.39;100.00;98480.88;5028325;28;19929;-83
2022/09/05 09:39:26;;;;;;;;;;;;;;;23.31;100.00;98480.88;5023489;28;20305;-83
2022/09/05 09:42:02;;;;;;;;;;;;;;;23.49;100.00;98483.19;5038057;28;19975;-83
2022/09/05 09:44:44;;;;;;;;;;;;;;;23.47;100.00;98479.19;5033975;28;19968;-84
2022/09/05 09:47:13;;;;;;;;;;;;;;;23.50;100.00;98476.59;5035739;28;19944;-83
2022/09/05 09:49:49;;;;;;;;;;;;;;;23.59;100.00;98468.34;5044251;28;19929;-83
2022/09/05 09:52:27;;;;;;;;;;;;;;;23.47;100.00;98473.75;5022759;28;19931;-83
2022/09/05 09:55:12;;;;;;;;;;;;;;;23.60;100.00;98464.50;5044330;28;20020;-83
2022/09/05 09:57:57;;;;;;;;;;;;;;;23.70;100.00;98475.00;5021943;28;19929;-84
2022/09/05 10:00:24;;;;;;;;;;;;;;;23.59;100.00;98469.16;5042151;28;19925;-82
2022/09/05 10:03:02;;;;;;;;;;;;;;;23.64;100.00;98466.22;5043726;28;19935;-83
2022/09/05 10:05:41;;;;;;;;;;;;;;;23.88;100.00;98462.00;5041216;28;19925;-83
2022/09/05 10:08:18;;;;;;;;;;;;;;;24.09;100.00;98460.78;5024824;28;20181;-83
2022/09/05 10:11:08;;;;;;;;;;;;;;;24.15;100.00;98473.13;5040387;28;20415;-83
2022/09/05 10:13:43;;;;;;;;;;;;;;;24.17;100.00;98462.66;5042435;28;19929;-82
2022/09/05 10:16:30;;;;;;;;;;;;;;;24.14;100.00;98460.59;5045012;28;19933;-83
2022/09/05 10:19:10;;;;;;;;;;;;;;;24.31;100.00;98456.09;5023923;28;20003;-83
2022/09/05 10:21:57;;;;;;;;;;;;;;;24.28;100.00;98459.50;5045026;28;20445;-84
2022/09/05 10:24:41;;;;;;;;;;;;;;;24.27;100.00;98455.97;5032156;28;19929;-83
2022/09/05 10:27:13;;;;;;;;;;;;;;;24.56;100.00;98454.97;5041713;28;19929;-84
2022/09/05 10:29:45;;;;;;;;;;;;;;;24.62;100.00;98445.41;5042286;28;19925;-83
2022/09/05 10:32:15;;;;;;;;;;;;;;;24.71;100.00;98451.56;5044958;28;19925;-83
2022/09/05 10:34:45;;;;;;;;;;;;;;;24.68;100.00;98444.84;5026062;28;20011;-82
2022/09/05 10:37:12;;;;;;;;;;;;;;;24.76;100.00;98443.13;5041044;28;20479;-83
2022/09/05 10:39:44;;;;;;;;;;;;;;;24.81;100.00;98444.84;5044014;28;20019;-84
2022/09/05 10:42:14;;;;;;;;;;;;;;;24.75;100.00;98444.28;5019981;28;19995;-84
2022/09/05 10:44:44;;;;;;;;;;;;;;;24.91;100.00;98441.69;5043120;28;20563;-85
2022/09/05 10:47:16;;;;;;;;;;;;;;;25.02;96.37;98443.59;5020019;28;19940;-83
2022/09/05 10:49:44;;;;;;;;;;;;;;;24.81;97.76;98434.75;5021476;28;19991;-82
2022/09/05 10:52:12;;;;;;;;;;;;;;;24.94;95.99;98436.31;5035107;28;19929;-83
2022/09/05 10:54:46;;;;;;;;;;;;;;;24.89;96.62;98431.06;5038236;28;19960;-84
2022/09/05 10:57:31;;;;;;;;;;;;;;;24.86;99.19;98422.75;5014165;28;19925;-83
2022/09/05 11:00:06;;;;;;;;;;;;;;;25.11;99.87;98416.91;5027257;28;19932;-83
2022/09/05 11:02:34;;;;;;;;;;;;;;;25.23;98.35;98422.34;5031912;28;20534;-83
2022/09/05 11:05:05;;;;;;;;;;;;;;;25.45;95.05;98417.47;5027642;28;19935;-83
2022/09/05 11:07:37;;;;;;;;;;;;;;;25.30;93.71;98410.81;5034560;28;20402;-83
2022/09/05 11:10:10;;;;;;;;;;;;;;;25.23;97.59;98403.22;5031510;28;20092;-83
2022/09/05 11:12:47;;;;;;;;;;;;;;;25.34;95.55;98398.06;5032095;28;19972;-83
2022/09/05 11:15:21;;;;;;;;;;;;;;;25.43;94.89;98404.19;5040093;28;19932;-83
2022/09/05 11:17:54;;;;;;;;;;;;;;;25.55;88.58;98395.94;5021230;28;19929;-84
2022/09/05 11:20:29;;;;;;;;;;;;;;;25.51;89.44;98402.44;5044673;28;20007;-83
2022/09/05 11:23:00;;;;;;;;;;;;;;;25.54;87.13;98394.34;5046016;28;20713;-84
2022/09/05 11:25:29;;;;;;;;;;;;;;;25.63;87.65;98389.50;5042317;28;19928;-83
2022/09/05 11:27:57;;;;;;;;;;;;;;;25.58;88.49;98395.25;5028013;28;19931;-84
2022/09/05 11:30:26;;;;;;;;;;;;;;;25.59;90.70;98387.84;5030850;28;20037;-83
2022/09/05 11:33:10;;;;;;;;;;;;;;;25.75;91.30;98386.72;5045747;28;19929;-84
2022/09/05 11:35:39;;;;;;;;;;;;;;;25.72;87.85;98379.19;5045741;28;19990;-83
2022/09/05 11:38:33;;;;;;;;;;;;;;;25.84;89.10;98392.03;5048163;28;19924;-83
2022/09/05 11:41:20;;;;;;;;;;;;;;;25.80;89.71;98384.88;5027353;28;19933;-83
2022/09/05 11:44:04;;;;;;;;;;;;;;;25.88;88.17;98379.22;5021992;28;19929;-83
2022/09/05 11:46:35;;;;;;;;;;;;;;;25.81;88.73;98387.25;5027079;28;19933;-83
2022/09/05 11:49:11;;;;;;;;;;;;;;;25.83;82.90;98384.16;5022570;28;19943;-82
2022/09/05 11:51:58;;;;;;;;;;;;;;;25.77;85.32;98376.22;5043665;28;19928;-82
2022/09/05 11:54:55;;;;;;;;;;;;;;;25.66;87.36;98375.13;5045763;28;20339;-83
2022/09/05 11:57:30;;;;;;;;;;;;;;;25.92;83.78;98371.09;4980847;28;19940;-84
2022/09/05 12:00:10;;;;;;;;;;;;;;;25.75;88.10;98373.03;5029007;28;19979;-84
2022/09/05 12:02:48;;;;;;;;;;;;;;;25.92;87.58;98379.31;5025845;28;20019;-84
2022/09/05 12:05:32;;;;;;;;;;;;;;;25.90;82.39;98376.94;5046462;28;19951;-83
2022/09/05 12:08:05;;;;;;;;;;;;;;;26.18;77.93;98363.97;5024522;28;20435;-83
2022/09/05 12:10:36;;;;;;;;;;;;;;;26.21;77.94;98351.56;5048022;28;19928;-83
2022/09/05 12:13:14;;;;;;;;;;;;;;;25.90;86.14;98367.94;5023111;28;20347;-84
2022/09/05 12:15:45;;;;;;;;;;;;;;;26.23;77.00;98358.25;5045486;28;19943;-83
2022/09/05 12:18:18;;;;;;;;;;;;;;;26.19;76.09;98360.09;5028830;28;20442;-83
2022/09/05 12:20:50;;;;;;;;;;;;;;;26.12;78.75;98357.16;5047071;28;19925;-82
2022/09/05 12:23:25;;;;;;;;;;;;;;;25.98;84.12;98347.81;5047906;28;20380;-81
2022/09/05 12:25:56;;;;;;;;;;;;;;;26.24;77.38;98345.38;5047779;28;19950;-82
2022/09/05 12:28:26;;;;;;;;;;;;;;;26.27;77.15;98352.88;5047536;28;19935;-83
2022/09/05 12:31:08;;;;;;;;;;;;;;;26.02;80.34;98344.03;5045467;28;19936;-82
2022/09/05 12:33:35;;;;;;;;;;;;;;;26.25;75.82;98352.41;5046128;28;19932;-81
2022/09/05 12:36:05;;;;;;;;;;;;;;;26.33;73.97;98345.97;5039900;28;19929;-84
2022/09/05 12:38:37;;;;;;;;;;;;;;;26.49;71.09;98343.22;5046380;28;20283;-84
2022/09/05 12:41:07;;;;;;;;;;;;;;;26.23;75.07;98338.28;5034565;28;20016;-83
2022/09/05 12:43:34;;;;;;;;;;;;;;;26.28;79.58;98340.75;5043037;28;19939;-82
2022/09/05 12:46:07;;;;;;;;;;;;;;;26.35;67.93;98331.91;5033536;28;19935;-82
2022/09/05 12:48:39;;;;;;;;;;;;;;;26.52;65.32;98335.03;5024694;28;19928;-82
2022/09/05 12:51:08;;;;;;;;;;;;;;;26.58;64.26;98330.91;5032108;28;19948;-83
2022/09/05 12:53:45;;;;;;;;;;;;;;;26.69;63.87;98333.88;5033459;28;19929;-81
2022/09/05 12:56:19;;;;;;;;;;;;;;;26.53;66.33;98336.66;5033582;28;19928;-82
2022/09/05 12:58:48;;;;;;;;;;;;;;;26.64;66.10;98337.69;5036885;28;19929;-82
2022/09/05 13:01:27;;;;;;;;;;;;;;;26.68;66.16;98324.03;5024605;28;19954;-81
2022/09/05 13:03:57;;;;;;;;;;;;;;;26.76;63.28;98328.53;5039922;28;19932;-82
2022/09/05 13:06:24;;;;;;;;;;;;;;;26.54;67.34;98327.28;5046806;28;19925;-82
2022/09/05 13:08:56;;;;;;;;;;;;;;;26.60;67.45;98320.38;5029143;28;19982;-82
2022/09/05 13:11:23;;;;;;;;;;;;;;;26.74;67.90;98317.94;5044289;28;19924;-82
2022/09/05 13:13:52;;;;;;;;;;;;;;;26.67;67.23;98311.53;5046565;28;19936;-81